Time;durP1;ratioP1;P1;durP2;ratioP2;P2;SDS_P1;SDS_P2;PMS_P1;PMS_P2;Temp;Humidity;BMP_temperature;BMP_pressure;BME280_temperature;BME280_humidity;BME280_pressure;Samples;Min_cycle;Max_cycle;Signal;HPM_P1;HPM_P2
2021/07/07 00:00:23;;;;;;;10.60;3.20;;;13.80;99.90;;;;;;5047488;28;20045;-76
2021/07/07 00:02:50;;;;;;;8.95;2.97;;;13.80;99.90;;;;;;5067613;28;20040;-76
2021/07/07 00:05:17;;;;;;;6.43;2.92;;;13.80;99.90;;;;;;5063120;28;20128;-75
2021/07/07 00:07:45;;;;;;;6.05;3.15;;;13.80;99.90;;;;;;5068692;28;20044;-77
2021/07/07 00:10:13;;;;;;;;;;;13.70;99.90;;;;;;5062692;28;20037;-76
2021/07/07 00:12:39;;;;;;;7.88;3.47;;;13.70;99.90;;;;;;5059780;28;19917;-76
2021/07/07 00:15:10;;;;;;;8.85;3.35;;;13.70;99.90;;;;;;5049124;28;20044;-76
2021/07/07 00:17:36;;;;;;;14.18;3.35;;;13.70;99.90;;;;;;5060875;28;20037;-76
2021/07/07 00:20:05;;;;;;;7.35;3.38;;;13.70;99.90;;;;;;5003908;28;20127;-75
2021/07/07 00:22:31;;;;;;;8.38;3.70;;;13.60;99.90;;;;;;5059114;28;20036;-76
2021/07/07 00:24:56;;;;;;;5.93;3.13;;;13.60;99.90;;;;;;5054777;28;20466;-77
2021/07/07 00:27:24;;;;;;;5.32;2.92;;;13.50;99.90;;;;;;5069368;28;20049;-75
2021/07/07 00:29:51;;;;;;;8.00;3.30;;;13.50;99.90;;;;;;5054020;28;20052;-76
2021/07/07 00:32:18;;;;;;;5.85;2.90;;;13.50;99.90;;;;;;5061951;28;20035;-76
2021/07/07 00:34:45;;;;;;;5.75;2.55;;;13.40;99.90;;;;;;5049752;28;20047;-76
2021/07/07 00:37:12;;;;;;;8.70;3.13;;;13.50;99.90;;;;;;5054057;28;20060;-76
2021/07/07 00:39:37;;;;;;;5.35;3.58;;;13.50;99.90;;;;;;5066737;28;20044;-75
2021/07/07 00:42:04;;;;;;;6.35;3.13;;;13.50;99.90;;;;;;5068427;28;20033;-76
2021/07/07 00:44:29;;;;;;;7.20;2.80;;;13.50;99.90;;;;;;5066995;28;20033;-76
2021/07/07 00:46:55;;;;;;;5.22;2.78;;;13.50;99.90;;;;;;5043010;28;20231;-76
2021/07/07 00:49:21;;;;;;;7.72;2.83;;;13.40;99.90;;;;;;5051124;28;20037;-76
2021/07/07 00:51:47;;;;;;;5.15;3.30;;;13.40;99.90;;;;;;5036462;28;20482;-76
2021/07/07 00:54:14;;;;;;;5.85;3.10;;;13.30;99.90;;;;;;5066802;28;20135;-76
2021/07/07 00:56:41;;;;;;;7.22;3.20;;;13.30;99.90;;;;;;5060232;28;20047;-77
2021/07/07 00:59:08;;;;;;;4.45;2.90;;;13.30;99.90;;;;;;5069731;28;20127;-76
2021/07/07 01:01:34;;;;;;;8.25;3.53;;;13.20;99.90;;;;;;5061561;28;20036;-75
2021/07/07 01:04:00;;;;;;;5.55;3.30;;;13.20;99.90;;;;;;5072878;28;20040;-76
2021/07/07 01:06:26;;;;;;;6.47;3.45;;;13.20;99.90;;;;;;5062382;28;20040;-76
2021/07/07 01:08:52;;;;;;;8.73;3.20;;;13.20;99.90;;;;;;5052828;28;20094;-75
2021/07/07 01:11:18;;;;;;;7.47;3.30;;;13.10;99.90;;;;;;5053711;28;20068;-76
2021/07/07 01:13:44;;;;;;;5.97;3.42;;;13.10;99.90;;;;;;5053358;28;20520;-75
2021/07/07 01:16:10;;;;;;;6.00;3.47;;;13.10;99.90;;;;;;5038544;28;20064;-75
2021/07/07 01:18:36;;;;;;;6.43;3.47;;;13.00;99.90;;;;;;5052277;28;20041;-76
2021/07/07 01:21:04;;;;;;;9.20;3.53;;;13.00;99.90;;;;;;5055940;28;20037;-76
2021/07/07 01:23:31;;;;;;;6.93;3.65;;;13.00;99.90;;;;;;5059888;28;20037;-76
2021/07/07 01:25:58;;;;;;;5.57;3.55;;;13.00;99.90;;;;;;5070913;28;20036;-76
2021/07/07 01:28:24;;;;;;;6.15;3.15;;;12.90;99.90;;;;;;5070913;28;20040;-76
2021/07/07 01:30:49;;;;;;;;;;;12.80;99.90;;;;;;5059350;28;20033;-76
2021/07/07 01:33:15;;;;;;;7.72;3.67;;;12.80;99.90;;;;;;5070812;28;20007;-76
2021/07/07 01:35:42;;;;;;;7.18;3.75;;;12.70;99.90;;;;;;5037921;28;20044;-76
2021/07/07 01:38:07;;;;;;;;;;;12.60;99.90;;;;;;5065022;28;20052;-76
2021/07/07 01:40:33;;;;;;;8.73;3.58;;;12.60;99.90;;;;;;5057804;28;19920;-76
2021/07/07 01:42:59;;;;;;;8.85;3.78;;;12.60;99.90;;;;;;5065132;28;20040;-76
2021/07/07 01:45:27;;;;;;;7.22;3.40;;;12.50;99.90;;;;;;5056829;28;20039;-76
2021/07/07 01:47:54;;;;;;;10.45;3.88;;;12.50;99.90;;;;;;5062189;28;20041;-76
2021/07/07 01:50:22;;;;;;;7.38;4.32;;;12.50;99.90;;;;;;5052639;28;20036;-76
2021/07/07 01:52:48;;;;;;;4.63;3.45;;;12.40;99.90;;;;;;5052825;28;20536;-76
2021/07/07 01:55:15;;;;;;;7.43;3.67;;;12.40;99.90;;;;;;5048912;28;20052;-76
2021/07/07 01:57:47;;;;;;;7.18;3.60;;;12.40;99.90;;;;;;5033890;28;20053;-76
2021/07/07 02:00:17;;;;;;;8.32;3.58;;;12.40;99.90;;;;;;5050194;28;20382;-76
2021/07/07 02:02:47;;;;;;;5.72;3.45;;;12.30;99.90;;;;;;5063133;28;20048;-76
2021/07/07 02:05:14;;;;;;;7.50;3.53;;;12.30;99.90;;;;;;5063989;28;20362;-76
2021/07/07 02:07:41;;;;;;;10.90;3.85;;;12.30;99.90;;;;;;5054844;28;20086;-76
2021/07/07 02:10:11;;;;;;;8.85;4.05;;;12.30;99.90;;;;;;5063405;28;20054;-77
2021/07/07 02:12:37;;;;;;;6.47;3.90;;;12.30;99.90;;;;;;5064107;28;20187;-76
2021/07/07 02:15:10;;;;;;;9.07;4.00;;;12.30;99.90;;;;;;5071306;28;20123;-77
2021/07/07 02:17:37;;;;;;;7.18;4.00;;;12.30;99.90;;;;;;5071094;28;20401;-76
2021/07/07 02:20:07;;;;;;;5.75;3.63;;;12.30;99.90;;;;;;5057670;28;20044;-77
2021/07/07 02:22:34;;;;;;;6.57;3.67;;;12.40;99.90;;;;;;5059850;28;20068;-76
2021/07/07 02:25:00;;;;;;;6.40;3.55;;;12.40;99.90;;;;;;5065747;28;20068;-76
2021/07/07 02:27:26;;;;;;;;;;;12.40;99.90;;;;;;5060788;28;20493;-76
2021/07/07 02:29:52;;;;;;;6.25;3.80;;;12.30;99.90;;;;;;5063923;28;19916;-76
2021/07/07 02:32:17;;;;;;;6.97;3.63;;;12.30;99.90;;;;;;5059527;28;20032;-78
2021/07/07 02:34:43;;;;;;;7.65;3.50;;;12.30;99.90;;;;;;5064477;28;20074;-75
2021/07/07 02:37:09;;;;;;;7.70;3.80;;;12.30;99.90;;;;;;5063747;28;20112;-76
2021/07/07 02:39:35;;;;;;;8.10;4.22;;;12.30;99.90;;;;;;5053803;28;20535;-75
2021/07/07 02:42:00;;;;;;;10.13;4.53;;;12.30;99.90;;;;;;5056995;28;20470;-76
2021/07/07 02:44:26;;;;;;;7.22;3.80;;;12.30;99.90;;;;;;5059854;28;20048;-75
2021/07/07 02:46:52;;;;;;;9.05;4.22;;;12.20;99.90;;;;;;5059452;28;20048;-75
2021/07/07 02:49:18;;;;;;;11.27;4.18;;;12.20;99.90;;;;;;5073892;28;20040;-76
2021/07/07 02:51:44;;;;;;;5.75;3.83;;;12.30;99.90;;;;;;5054026;28;20052;-75
2021/07/07 02:54:09;;;;;;;7.85;4.45;;;12.30;99.90;;;;;;5057103;28;20071;-76
2021/07/07 02:56:35;;;;;;;7.72;4.03;;;12.30;99.90;;;;;;5050534;28;20048;-76
2021/07/07 02:59:01;;;;;;;5.50;3.83;;;12.30;99.90;;;;;;5059217;28;20438;-76
2021/07/07 03:01:27;;;;;;;10.77;4.78;;;12.30;99.90;;;;;;5056342;28;20374;-75
2021/07/07 03:03:53;;;;;;;7.30;4.18;;;12.30;99.90;;;;;;5057787;28;20044;-75
2021/07/07 03:06:19;;;;;;;7.53;4.18;;;12.30;99.90;;;;;;5022589;28;20387;-75
2021/07/07 03:08:45;;;;;;;6.43;4.50;;;12.30;99.90;;;;;;5049768;28;20041;-75
2021/07/07 03:11:11;;;;;;;7.35;4.18;;;12.30;99.90;;;;;;5050037;28;20040;-77
2021/07/07 03:13:37;;;;;;;6.82;4.15;;;12.30;99.90;;;;;;5057760;28;20041;-76
2021/07/07 03:16:03;;;;;;;9.00;4.32;;;12.30;99.90;;;;;;5066029;28;20047;-75
2021/07/07 03:18:29;;;;;;;;;;;12.30;99.90;;;;;;5057785;28;20454;-76
2021/07/07 03:20:55;;;;;;;6.90;4.05;;;12.30;99.90;;;;;;5058224;28;19916;-75
2021/07/07 03:23:21;;;;;;;;;;;12.30;99.90;;;;;;5064776;28;20032;-75
2021/07/07 03:25:48;;;;;;;8.90;4.22;;;12.30;99.90;;;;;;5050381;28;19950;-76
2021/07/07 03:28:16;;;;;;;8.70;4.05;;;12.40;99.90;;;;;;5056458;28;20053;-76
2021/07/07 03:30:42;;;;;;;8.63;3.75;;;12.40;99.90;;;;;;5051410;28;20052;-76
2021/07/07 03:33:08;;;;;;;7.10;3.90;;;12.50;99.90;;;;;;5051496;28;20037;-75
2021/07/07 03:35:33;;;;;;;;;;;12.50;99.90;;;;;;5054534;28;20060;-76
2021/07/07 03:37:59;;;;;;;7.35;3.92;;;12.40;99.90;;;;;;5060751;28;19959;-76
2021/07/07 03:40:27;;;;;;;8.68;3.90;;;12.50;99.90;;;;;;5060041;28;20040;-76
2021/07/07 03:42:53;;;;;;;6.05;4.10;;;12.50;99.90;;;;;;5041552;28;20094;-75
2021/07/07 03:45:20;;;;;;;5.30;3.88;;;12.60;99.90;;;;;;5040078;28;20482;-76
2021/07/07 03:47:46;;;;;;;6.85;3.80;;;12.60;99.90;;;;;;5058705;28;20040;-75
2021/07/07 03:50:13;;;;;;;7.72;4.00;;;12.60;99.90;;;;;;5063201;28;20104;-75
2021/07/07 03:52:39;;;;;;;7.43;4.20;;;12.60;99.90;;;;;;5056317;28;20037;-75
2021/07/07 03:55:09;;;;;;;8.32;4.00;;;12.60;99.90;;;;;;5064243;28;20044;-76
2021/07/07 03:57:35;;;;;;;7.82;4.75;;;12.60;99.90;;;;;;5063983;28;20044;-75
2021/07/07 04:00:03;;;;;;;;;;;12.60;99.90;;;;;;5053266;28;20045;-76
2021/07/07 04:02:28;;;;;;;5.78;4.00;;;12.70;99.90;;;;;;5057763;28;19929;-76
2021/07/07 04:04:54;;;;;;;6.07;4.13;;;12.70;99.90;;;;;;5062437;28;20119;-76
2021/07/07 04:07:20;;;;;;;6.80;3.78;;;12.80;99.90;;;;;;5035927;28;20041;-76
2021/07/07 04:09:46;;;;;;;8.63;4.55;;;12.80;99.90;;;;;;5047823;28;20040;-75
2021/07/07 04:12:12;;;;;;;10.38;5.00;;;12.90;99.90;;;;;;5055058;28;20041;-76
2021/07/07 04:14:38;;;;;;;7.47;4.40;;;12.90;99.90;;;;;;5046657;28;20037;-75
2021/07/07 04:17:03;;;;;;;6.10;4.03;;;13.00;99.90;;;;;;5057586;28;20382;-75
2021/07/07 04:19:29;;;;;;;8.68;4.20;;;13.00;99.90;;;;;;5054251;28;20033;-75
2021/07/07 04:21:55;;;;;;;8.05;4.10;;;13.10;99.90;;;;;;5050801;28;20108;-76
2021/07/07 04:24:21;;;;;;;6.47;4.28;;;13.10;99.90;;;;;;5062612;28;20082;-76
2021/07/07 04:26:48;;;;;;;7.18;3.92;;;13.20;99.90;;;;;;5057908;28;20482;-76
2021/07/07 04:29:14;;;;;;;10.55;4.38;;;13.20;99.90;;;;;;5056314;28;20108;-76
2021/07/07 04:31:40;;;;;;;8.88;4.30;;;13.30;99.90;;;;;;5067658;28;20428;-75
2021/07/07 04:34:06;;;;;;;;;;;13.30;99.90;;;;;;5063058;28;20068;-75
2021/07/07 04:36:33;;;;;;;8.82;3.97;;;13.30;99.90;;;;;;5059449;28;20374;-75
2021/07/07 04:39:00;;;;;;;7.05;3.33;;;13.40;99.90;;;;;;5066369;28;20044;-75
2021/07/07 04:41:26;;;;;;;9.35;4.65;;;13.40;99.90;;;;;;5072249;28;20478;-75
2021/07/07 04:43:52;;;;;;;6.40;4.07;;;13.50;99.90;;;;;;5042619;28;20044;-75
2021/07/07 04:46:18;;;;;;;;;;;13.60;99.90;;;;;;5055223;28;20087;-75
2021/07/07 04:48:47;;;;;;;7.55;3.83;;;13.60;99.90;;;;;;5056591;28;20385;-75
2021/07/07 04:51:13;;;;;;;7.90;3.53;;;13.70;99.90;;;;;;5037844;28;20041;-75
2021/07/07 04:53:40;;;;;;;7.63;3.75;;;13.70;99.90;;;;;;5055665;28;20041;-76
2021/07/07 04:56:06;;;;;;;8.20;3.75;;;13.80;99.90;;;;;;5053094;28;20044;-75
2021/07/07 04:58:33;;;;;;;7.00;4.03;;;13.90;99.90;;;;;;5056786;28;20041;-75
2021/07/07 05:00:59;;;;;;;7.60;3.67;;;13.90;99.90;;;;;;5063279;28;20673;-75
2021/07/07 05:03:24;;;;;;;6.50;4.35;;;14.10;99.90;;;;;;5058764;28;20032;-74
2021/07/07 05:05:50;;;;;;;;;;;14.10;99.90;;;;;;5053767;28;20041;-75
2021/07/07 05:08:16;;;;;;;6.72;3.75;;;14.20;99.90;;;;;;5060016;28;19917;-75
2021/07/07 05:10:42;;;;;;;7.88;3.97;;;14.30;99.90;;;;;;5062640;28;20427;-75
2021/07/07 05:13:08;;;;;;;5.85;3.67;;;14.40;99.90;;;;;;5064554;28;20047;-75
2021/07/07 05:15:34;;;;;;;7.07;3.88;;;14.60;99.90;;;;;;5064555;28;20135;-76
2021/07/07 05:18:00;;;;;;;;;;;14.70;99.90;;;;;;5058595;28;20120;-76
2021/07/07 05:20:26;;;;;;;9.25;4.07;;;14.80;99.90;;;;;;5065395;28;20362;-76
2021/07/07 05:22:52;;;;;;;;;;;14.90;99.90;;;;;;5052474;28;20045;-77
2021/07/07 05:25:20;;;;;;;5.65;3.20;;;15.10;99.90;;;;;;5053799;28;19982;-76
2021/07/07 05:27:47;;;;;;;5.10;3.30;;;15.20;99.90;;;;;;5060116;28;20040;-76
2021/07/07 05:30:14;;;;;;;6.53;3.50;;;15.30;99.90;;;;;;5053829;28;20056;-76
2021/07/07 05:32:40;;;;;;;6.85;3.80;;;15.60;99.90;;;;;;5053692;28;20112;-76
2021/07/07 05:35:07;;;;;;;7.80;3.92;;;15.80;99.90;;;;;;5051195;28;20124;-76
2021/07/07 05:37:33;;;;;;;6.55;3.40;;;15.90;99.90;;;;;;5060521;28;20036;-81
2021/07/07 05:40:03;;;;;;;9.40;4.47;;;16.40;99.90;;;;;;5059952;28;20102;-83
2021/07/07 05:42:29;;;;;;;6.15;3.50;;;16.10;99.90;;;;;;5052607;28;20131;-83
2021/07/07 05:44:55;;;;;;;;;;;16.20;99.90;;;;;;5043615;28;20119;-82
2021/07/07 05:47:23;;;;;;;5.93;3.35;;;16.40;99.90;;;;;;5041780;28;20024;-83
2021/07/07 05:49:57;;;;;;;6.13;2.72;;;16.70;99.90;;;;;;5046795;28;20160;-81
2021/07/07 05:52:27;;;;;;;6.70;3.05;;;16.50;99.90;;;;;;5035898;28;20437;-81
2021/07/07 05:54:55;;;;;;;6.65;2.92;;;16.60;99.90;;;;;;5037585;28;20040;-84
2021/07/07 05:57:39;;;;;;;5.63;3.08;;;16.70;99.90;;;;;;5027567;28;20055;-85
2021/07/07 06:03:11;;;;;;;7.60;3.35;;;16.90;99.90;;;;;;5041925;28;20496;-79
2021/07/07 06:05:39;;;;;;;5.05;3.22;;;16.90;99.90;;;;;;5041806;28;20041;-84
2021/07/07 06:08:07;;;;;;;7.30;2.97;;;16.90;99.90;;;;;;4999910;28;20423;-86
2021/07/07 06:10:34;;;;;;;6.13;3.20;;;17.00;99.90;;;;;;5012363;28;20049;-81
2021/07/07 06:13:01;;;;;;;5.55;3.10;;;17.00;99.90;;;;;;5042455;28;20025;-85
2021/07/07 06:15:27;;;;;;;11.52;3.55;;;17.10;99.90;;;;;;5026901;28;20061;-81
2021/07/07 06:17:54;;;;;;;4.55;3.35;;;16.90;99.90;;;;;;5039779;28;20053;-85
2021/07/07 06:20:21;;;;;;;6.72;3.67;;;16.80;99.90;;;;;;5032905;28;20092;-83
2021/07/07 06:22:49;;;;;;;;;;;16.80;99.90;;;;;;5023205;28;20045;-86
2021/07/07 06:25:47;;;;;;;5.32;3.20;;;16.80;99.90;;;;;;4992290;28;20379;-83
2021/07/07 06:28:14;;;;;;;6.82;3.08;;;16.90;99.90;;;;;;5002561;28;20056;-84
2021/07/07 06:30:39;;;;;;;8.75;3.33;;;17.00;99.90;;;;;;4967804;28;20803;-86
2021/07/07 06:33:12;;;;;;;6.18;3.25;;;17.10;99.90;;;;;;4973724;28;20545;-83
2021/07/07 06:35:38;;;;;;;5.85;3.20;;;17.20;99.90;;;;;;4970796;28;20046;-82
2021/07/07 06:38:07;;;;;;;6.93;3.10;;;17.20;99.90;;;;;;4971562;28;20050;-77
2021/07/07 06:40:38;;;;;;;6.88;3.17;;;17.30;99.90;;;;;;5013678;28;20060;-87
2021/07/07 06:43:05;;;;;;;8.68;3.47;;;17.50;99.90;;;;;;4993412;28;20451;-85
2021/07/07 06:45:36;;;;;;;4.93;2.85;;;17.60;99.90;;;;;;5045781;28;20120;-82
2021/07/07 06:48:11;;;;;;;6.47;3.13;;;17.70;99.90;;;;;;5035392;28;20471;-82
2021/07/07 06:50:38;;;;;;;4.03;2.58;;;17.70;99.90;;;;;;5042405;28;20052;-82
2021/07/07 06:53:12;;;;;;;5.70;3.22;;;17.70;99.90;;;;;;5056467;28;20033;-85
2021/07/07 06:55:38;;;;;;;6.45;3.13;;;17.80;99.90;;;;;;5051483;28;20103;-84
2021/07/07 06:58:14;;;;;;;5.35;2.90;;;17.90;99.90;;;;;;5064407;28;20077;-82
2021/07/07 07:00:46;;;;;;;5.85;3.15;;;18.00;99.90;;;;;;5028484;28;20057;-81
2021/07/07 07:03:13;;;;;;;5.47;3.28;;;18.10;99.90;;;;;;5048948;28;20126;-79
2021/07/07 07:05:39;;;;;;;;;;;18.30;99.90;;;;;;5010026;28;20478;-84
2021/07/07 07:08:16;;;;;;;5.43;2.97;;;18.40;99.90;;;;;;5023602;28;19974;-80
2021/07/07 07:10:48;;;;;;;7.30;3.25;;;18.50;99.90;;;;;;5029488;28;20045;-78
2021/07/07 07:13:13;;;;;;;;;;;18.60;99.90;;;;;;5015380;28;20081;-79
2021/07/07 07:15:41;;;;;;;4.47;2.78;;;18.50;99.90;;;;;;5034904;28;19925;-75
2021/07/07 07:18:08;;;;;;;7.65;3.20;;;18.60;99.90;;;;;;5045692;28;20064;-81
2021/07/07 07:20:35;;;;;;;7.10;3.25;;;18.80;99.90;;;;;;5028985;28;20128;-81
2021/07/07 07:23:01;;;;;;;;;;;18.80;99.90;;;;;;5039167;28;20112;-79
2021/07/07 07:25:27;;;;;;;6.55;3.35;;;18.80;99.90;;;;;;5038508;28;20356;-78
2021/07/07 07:27:56;;;;;;;5.50;3.20;;;18.70;99.90;;;;;;5037277;28;20044;-81
2021/07/07 07:30:22;;;;;;;5.93;2.78;;;18.70;99.90;;;;;;5040130;28;20038;-79
2021/07/07 07:32:50;;;;;;;6.78;3.55;;;18.70;99.90;;;;;;5050889;28;20222;-81
2021/07/07 07:35:18;;;;;;;4.70;3.15;;;18.90;99.90;;;;;;5016970;28;20042;-85
2021/07/07 07:38:00;;;;;;;5.47;3.00;;;19.00;99.90;;;;;;5008562;28;20104;-80
2021/07/07 07:40:32;;;;;;;3.65;2.63;;;19.10;99.90;;;;;;5025819;28;20025;-80
2021/07/07 07:42:59;;;;;;;4.43;2.85;;;19.20;99.90;;;;;;5017463;28;20052;-77
2021/07/07 07:45:25;;;;;;;;;;;19.30;99.90;;;;;;5029568;28;20036;-77
2021/07/07 07:47:51;;;;;;;6.75;3.58;;;19.40;99.90;;;;;;5040081;28;20003;-80
2021/07/07 07:50:17;;;;;;;6.90;3.25;;;19.50;99.90;;;;;;5026557;28;20451;-84
2021/07/07 07:52:44;;;;;;;4.22;2.70;;;19.50;99.90;;;;;;5026263;28;20051;-79
2021/07/07 07:55:39;;;;;;;7.25;3.28;;;19.50;99.90;;;;;;5026264;28;20460;-85
2021/07/07 07:58:20;;;;;;;6.03;3.20;;;19.50;99.90;;;;;;5007963;28;20041;-88
2021/07/07 08:00:55;;;;;;;5.35;3.28;;;19.50;99.90;;;;;;5021107;28;20045;-86
2021/07/07 08:03:21;;;;;;;5.07;3.03;;;19.40;99.90;;;;;;5016056;28;20175;-84
2021/07/07 08:05:47;;;;;;;;;;;19.30;99.90;;;;;;5014440;28;20139;-82
2021/07/07 08:08:13;;;;;;;6.28;3.35;;;19.30;99.90;;;;;;5022845;28;19921;-84
2021/07/07 08:10:39;;;;;;;5.40;2.70;;;19.30;99.90;;;;;;5017351;28;20595;-82
2021/07/07 08:13:06;;;;;;;4.82;3.13;;;19.30;99.90;;;;;;5034515;28;20061;-83
2021/07/07 08:15:34;;;;;;;6.40;3.17;;;19.40;99.90;;;;;;5047091;28;20051;-83
2021/07/07 08:18:00;;;;;;;7.88;3.40;;;19.50;99.90;;;;;;5006395;28;20525;-82
2021/07/07 08:20:26;;;;;;;5.47;3.65;;;19.70;99.90;;;;;;5044758;28;20053;-79
2021/07/07 08:22:56;;;;;;;6.00;3.33;;;19.90;99.90;;;;;;5028473;28;20041;-83
2021/07/07 08:25:23;;;;;;;5.63;2.97;;;20.00;99.90;;;;;;5029741;28;20113;-84
2021/07/07 08:27:49;;;;;;;6.57;3.55;;;20.20;99.90;;;;;;5015387;28;20467;-83
2021/07/07 08:30:16;;;;;;;6.90;3.33;;;20.30;99.90;;;;;;5015413;28;20045;-83
2021/07/07 08:32:42;;;;;;;5.85;2.97;;;20.40;99.90;;;;;;5046663;28;20037;-85
2021/07/07 08:35:10;;;;;;;7.28;3.17;;;20.50;99.90;;;;;;5020727;28;20569;-84
2021/07/07 08:37:37;;;;;;;7.05;3.30;;;20.60;99.90;;;;;;5023374;28;20068;-81
2021/07/07 08:40:08;;;;;;;7.18;3.35;;;20.70;99.90;;;;;;5027396;28;20045;-83
2021/07/07 08:42:37;;;;;;;4.32;2.83;;;20.70;99.90;;;;;;5049951;28;20040;-82
2021/07/07 08:45:13;;;;;;;5.90;3.10;;;20.90;99.90;;;;;;5034769;28;20045;-85
2021/07/07 08:47:51;;;;;;;6.72;2.97;;;21.10;99.90;;;;;;5014295;28;20041;-83
2021/07/07 08:50:28;;;;;;;6.05;2.97;;;20.90;99.90;;;;;;5003447;28;20073;-84
2021/07/07 08:53:06;;;;;;;7.57;2.90;;;20.80;99.90;;;;;;5018336;28;20052;-82
2021/07/07 08:55:34;;;;;;;5.20;2.78;;;21.00;99.90;;;;;;5043073;28;20057;-83
2021/07/07 08:58:00;;;;;;;5.78;2.88;;;21.10;99.90;;;;;;5026118;28;20069;-81
2021/07/07 09:00:35;;;;;;;5.03;2.60;;;21.20;99.90;;;;;;5037717;28;20034;-82
2021/07/07 09:03:01;;;;;;;6.50;2.83;;;21.40;99.90;;;;;;5044515;28;20037;-78
2021/07/07 09:05:29;;;;;;;5.45;2.70;;;21.40;99.90;;;;;;5042043;28;20094;-78
2021/07/07 09:08:03;;;;;;;5.72;2.88;;;21.50;99.90;;;;;;5029827;28;20442;-82
2021/07/07 09:10:40;;;;;;;8.75;2.85;;;21.40;99.90;;;;;;5033306;28;20048;-82
2021/07/07 09:13:17;;;;;;;5.93;2.88;;;21.40;99.90;;;;;;5015807;28;20045;-82
2021/07/07 09:15:46;;;;;;;5.93;2.58;;;21.40;99.90;;;;;;5029553;28;20368;-80
2021/07/07 09:18:38;;;;;;;5.45;2.70;;;21.40;99.90;;;;;;5033667;28;20668;-81
2021/07/07 09:21:26;;;;;;;6.10;2.70;;;21.40;99.90;;;;;;5000284;28;20143;-84
2021/07/07 09:23:54;;;;;;;7.38;2.65;;;21.40;99.90;;;;;;5020973;28;20482;-81
2021/07/07 09:26:34;;;;;;;7.18;3.08;;;21.40;99.90;;;;;;5023620;28;20051;-81
2021/07/07 09:29:43;;;;;;;6.45;2.55;;;21.60;99.90;;;;;;5002561;28;20501;-83
2021/07/07 09:32:55;;;;;;;5.07;2.75;;;21.60;99.90;;;;;;5022582;28;20360;-86
2021/07/07 09:35:22;;;;;;;5.68;2.85;;;21.70;99.90;;;;;;5020175;28;20041;-79
2021/07/07 09:37:55;;;;;;;6.55;2.88;;;21.80;99.90;;;;;;5021432;28;20049;-81
2021/07/07 09:40:23;;;;;;;5.00;2.13;;;21.90;99.90;;;;;;5039006;28;20047;-80
2021/07/07 09:42:49;;;;;;;5.45;2.70;;;22.10;99.90;;;;;;5043494;28;20041;-82
2021/07/07 09:45:19;;;;;;;8.88;2.65;;;22.20;99.90;;;;;;5036013;28;20539;-80
2021/07/07 09:47:47;;;;;;;7.95;2.88;;;22.20;99.90;;;;;;5052306;28;20052;-82
2021/07/07 09:50:15;;;;;;;6.68;2.70;;;22.20;99.90;;;;;;5027946;28;20037;-82
2021/07/07 09:53:01;;;;;;;4.88;2.67;;;22.20;99.90;;;;;;5028875;28;20510;-78
2021/07/07 09:55:27;;;;;;;7.15;2.70;;;22.30;99.90;;;;;;5049174;28;20057;-80
2021/07/07 09:57:56;;;;;;;5.15;2.53;;;22.30;99.90;;;;;;5026582;28;20049;-84
2021/07/07 10:00:25;;;;;;;7.60;2.90;;;22.30;99.90;;;;;;5024096;28;20377;-84
2021/07/07 10:02:52;;;;;;;5.47;2.95;;;22.40;99.50;;;;;;5025359;28;20043;-82
2021/07/07 10:05:40;;;;;;;7.30;2.70;;;22.30;99.50;;;;;;5024156;28;20581;-82
2021/07/07 10:08:27;;;;;;;6.22;2.58;;;22.40;99.70;;;;;;5010379;28;20053;-80
2021/07/07 10:10:57;;;;;;;5.53;2.60;;;22.50;99.90;;;;;;5050010;28;20056;-80
2021/07/07 10:13:26;;;;;;;8.27;3.38;;;22.70;99.90;;;;;;5055035;28;20045;-82
2021/07/07 10:16:16;;;;;;;7.65;2.60;;;22.90;98.30;;;;;;5023435;28;20544;-79
2021/07/07 10:19:02;;;;;;;8.88;3.33;;;23.00;96.60;;;;;;5003067;28;20057;-81
2021/07/07 10:21:32;;;;;;;8.20;3.00;;;22.70;97.40;;;;;;5029613;28;20049;-80
2021/07/07 10:23:59;;;;;;;4.22;2.70;;;22.60;99.10;;;;;;5043595;28;20490;-80
2021/07/07 10:26:25;;;;;;;6.43;3.05;;;22.70;99.20;;;;;;5022931;28;20049;-82
2021/07/07 10:28:51;;;;;;;5.68;2.80;;;22.90;99.20;;;;;;5019472;28;20053;-82
2021/07/07 10:31:18;;;;;;;4.75;3.17;;;23.20;98.70;;;;;;5040582;28;20036;-81
2021/07/07 10:33:44;;;;;;;4.03;2.42;;;23.40;98.40;;;;;;5031319;28;20094;-81
2021/07/07 10:36:20;;;;;;;5.57;2.70;;;23.40;97.50;;;;;;5000952;28;20041;-82
2021/07/07 10:38:51;;;;;;;5.40;2.97;;;23.40;96.60;;;;;;5049216;28;20148;-78
2021/07/07 10:41:43;;;;;;;10.80;3.25;;;23.60;96.70;;;;;;5045028;28;20045;-83
2021/07/07 10:44:34;;;;;;;7.90;3.20;;;23.80;96.30;;;;;;5034487;28;20030;-84
2021/07/07 10:47:07;;;;;;;5.20;3.20;;;24.00;94.70;;;;;;5026409;28;20057;-81
2021/07/07 10:49:43;;;;;;;5.55;2.92;;;24.00;94.20;;;;;;5032580;28;20102;-79
2021/07/07 10:52:11;;;;;;;4.65;2.65;;;23.90;94.70;;;;;;5046758;28;20086;-81
2021/07/07 10:54:40;;;;;;;5.80;3.22;;;24.00;96.60;;;;;;5050091;28;20041;-80
2021/07/07 10:57:08;;;;;;;8.35;3.00;;;24.20;94.20;;;;;;5043025;28;20159;-77
2021/07/07 10:59:35;;;;;;;4.47;2.67;;;24.10;93.50;;;;;;5043480;28;20044;-79
2021/07/07 11:02:24;;;;;;;10.77;3.35;;;24.00;92.50;;;;;;5037113;28;20115;-82
2021/07/07 11:04:51;;;;;;;6.72;3.00;;;24.10;92.40;;;;;;5019049;28;20045;-81
2021/07/07 11:07:32;;;;;;;6.18;3.05;;;24.20;92.20;;;;;;5017380;28;20037;-81
2021/07/07 11:10:21;;;;;;;5.72;3.00;;;24.20;91.00;;;;;;5024918;28;20062;-79
2021/07/07 11:12:54;;;;;;;10.32;3.22;;;24.10;90.20;;;;;;5029394;28;20048;-81
2021/07/07 11:15:24;;;;;;;8.35;2.80;;;24.00;91.30;;;;;;5034485;28;20472;-84
2021/07/07 11:17:56;;;;;;;7.35;3.08;;;24.20;89.50;;;;;;5033676;28;20037;-81
2021/07/07 11:20:31;;;;;;;5.57;2.97;;;24.40;90.30;;;;;;5015017;28;20101;-82
2021/07/07 11:23:07;;;;;;;6.50;2.55;;;24.80;85.90;;;;;;5031947;28;20163;-82
2021/07/07 11:25:35;;;;;;;9.88;3.10;;;25.10;85.70;;;;;;5033265;28;20124;-80
2021/07/07 11:28:04;;;;;;;4.03;2.35;;;25.10;83.70;;;;;;5035477;28;20121;-84
2021/07/07 11:30:30;;;;;;;6.20;2.83;;;25.00;88.00;;;;;;5038225;28;20167;-83
2021/07/07 11:33:00;;;;;;;7.43;2.60;;;24.90;87.30;;;;;;4998370;28;20430;-82
2021/07/07 11:35:31;;;;;;;6.38;3.60;;;24.80;87.50;;;;;;5041010;28;20472;-79
2021/07/07 11:38:00;;;;;;;4.50;2.70;;;24.80;85.70;;;;;;5041829;28;20116;-81
2021/07/07 11:40:28;;;;;;;6.38;3.00;;;24.70;86.80;;;;;;5045026;28;20068;-80
2021/07/07 11:43:21;;;;;;;4.45;2.75;;;24.80;90.30;;;;;;5037431;28;20184;-81
2021/07/07 11:45:50;;;;;;;6.22;2.90;;;25.20;83.00;;;;;;5028267;28;20084;-82
2021/07/07 11:50:49;;;;;;;5.50;3.38;;;24.90;80.90;;;;;;5040792;28;20444;-84
2021/07/07 11:53:16;;;;;;;5.20;2.72;;;24.90;82.00;;;;;;5035874;28;20037;-80
2021/07/07 11:55:57;;;;;;;6.55;2.97;;;25.00;81.50;;;;;;5029478;28;20045;-79
2021/07/07 11:58:27;;;;;;;7.28;3.42;;;25.00;84.50;;;;;;5039286;28;20047;-77
2021/07/07 12:00:55;;;;;;;6.25;3.15;;;25.10;82.80;;;;;;5042194;28;20076;-80
2021/07/07 12:03:23;;;;;;;6.63;3.17;;;25.10;83.70;;;;;;5036143;28;20033;-79
2021/07/07 12:05:54;;;;;;;5.57;3.40;;;25.20;85.40;;;;;;5045279;28;20119;-77
2021/07/07 12:08:23;;;;;;;6.20;3.15;;;25.40;82.50;;;;;;5046937;28;20033;-80
2021/07/07 12:10:51;;;;;;;5.07;3.20;;;25.40;81.70;;;;;;5039044;28;20722;-80
2021/07/07 12:13:27;;;;;;;5.75;3.25;;;25.40;80.50;;;;;;5046744;28;20039;-81
2021/07/07 12:16:32;;;;;;;6.03;3.03;;;25.40;80.40;;;;;;5037868;28;20049;-81
2021/07/07 12:19:11;;;;;;;8.13;3.47;;;25.60;82.50;;;;;;5044067;28;20040;-82
2021/07/07 12:21:48;;;;;;;5.10;3.42;;;25.80;83.70;;;;;;5038516;28;20052;-80
2021/07/07 12:24:24;;;;;;;6.68;3.35;;;26.00;85.20;;;;;;5042076;28;20067;-80
2021/07/07 12:26:54;;;;;;;5.30;3.05;;;26.00;84.10;;;;;;5028502;28;20068;-79
2021/07/07 12:29:26;;;;;;;6.47;3.50;;;25.80;80.40;;;;;;5009266;28;20100;-83
2021/07/07 12:31:57;;;;;;;8.50;3.05;;;25.30;78.60;;;;;;5052792;28;20061;-82
2021/07/07 12:34:26;;;;;;;6.78;3.45;;;24.60;80.40;;;;;;5049385;28;20051;-82
2021/07/07 12:36:55;;;;;;;5.22;3.00;;;24.40;82.50;;;;;;5030352;28;20053;-83
2021/07/07 12:39:23;;;;;;;13.85;4.18;;;24.20;82.60;;;;;;5025341;28;20037;-81
2021/07/07 12:42:06;;;;;;;4.88;3.28;;;24.00;83.80;;;;;;5022692;28;20740;-79
2021/07/07 12:44:38;;;;;;;7.95;3.38;;;23.70;87.00;;;;;;5042784;28;20045;-81
2021/07/07 12:47:12;;;;;;;8.02;3.55;;;23.30;90.80;;;;;;5043260;28;20136;-83
2021/07/07 12:49:52;;;;;;;7.07;4.00;;;23.10;92.40;;;;;;5020143;28;20037;-79
2021/07/07 12:52:21;;;;;;;8.38;4.85;;;22.90;94.00;;;;;;5042566;28;20044;-78
2021/07/07 12:55:15;;;;;;;6.32;5.00;;;22.70;95.80;;;;;;5034081;28;20045;-78
2021/07/07 12:57:45;;;;;;;8.40;5.70;;;22.20;99.90;;;;;;5022458;28;20040;-78
2021/07/07 13:00:13;;;;;;;6.47;5.07;;;21.90;99.90;;;;;;5030502;28;20123;-81
2021/07/07 13:02:52;;;;;;;6.88;5.38;;;21.70;99.90;;;;;;5043342;28;20126;-79
2021/07/07 13:05:19;;;;;;;7.65;5.20;;;22.00;99.90;;;;;;5016898;28;20040;-80
2021/07/07 13:07:54;;;;;;;7.30;5.78;;;22.30;99.90;;;;;;5043878;28;20049;-81